createdAt,value
2024-05-09T00:00:35.580Z,45.75
2024-05-09T00:03:07.368Z,46.23
2024-05-09T00:05:34.163Z,47.58
2024-05-09T00:08:01.016Z,48.92
2024-05-09T00:10:35.434Z,44.72
2024-05-09T00:13:04.492Z,50.95
2024-05-09T00:15:31.595Z,52.77
2024-05-09T00:17:58.281Z,52.45
2024-05-09T00:20:33.087Z,54.63
2024-05-09T00:23:06.798Z,61.05
2024-05-09T00:25:33.644Z,56.40
2024-05-09T00:28:00.122Z,57.03
2024-05-09T00:30:33.543Z,50.25
2024-05-09T00:33:02.791Z,51.42
2024-05-09T00:35:29.786Z,52.72
2024-05-09T00:37:56.569Z,54.40
2024-05-09T00:40:31.099Z,53.77
2024-05-09T00:43:05.544Z,53.45
2024-05-09T00:45:32.149Z,53.67
2024-05-09T00:48:01.569Z,54.53
2024-05-09T00:50:35.666Z,48.50
2024-05-09T00:53:04.847Z,55.07
2024-05-09T00:55:31.610Z,54.83
2024-05-09T00:57:58.136Z,50.47
2024-05-09T01:00:31.582Z,46.42
2024-05-09T01:03:05.332Z,50.08
2024-05-09T01:05:32.605Z,49.90
2024-05-09T01:07:59.182Z,45.03
2024-05-09T01:10:33.500Z,50.60
2024-05-09T01:13:01.798Z,47.67
2024-05-09T01:15:28.359Z,58.95
2024-05-09T01:17:56.323Z,53.37
2024-05-09T01:20:32.038Z,55.42
2024-05-09T01:23:07.177Z,62.70
2024-05-09T01:25:34.161Z,55.70
2024-05-09T01:28:00.996Z,53.08
2024-05-09T01:30:34.000Z,57.37
2024-05-09T01:33:03.724Z,55.70
2024-05-09T01:35:30.519Z,59.35
2024-05-09T01:37:57.164Z,60.63
2024-05-09T01:40:33.315Z,56.88
2024-05-09T01:43:04.277Z,60.40
2024-05-09T01:45:30.726Z,57.25
2024-05-09T01:47:57.449Z,72.93
2024-05-09T01:50:35.765Z,60.53
2024-05-09T01:53:05.750Z,64.25
2024-05-09T01:55:32.563Z,65.10
2024-05-09T01:57:59.105Z,69.38
2024-05-09T02:00:36.883Z,67.43
2024-05-09T02:03:13.901Z,66.88
2024-05-09T02:05:43.329Z,72.30
2024-05-09T02:08:18.268Z,69.82
2024-05-09T02:10:45.843Z,77.07
2024-05-09T02:13:12.914Z,69.78
2024-05-09T02:15:39.479Z,67.78
2024-05-09T02:18:07.142Z,63.95
2024-05-09T02:20:36.701Z,59.00
2024-05-09T02:23:05.196Z,57.85
2024-05-09T02:25:32.359Z,66.30
2024-05-09T02:27:59.112Z,63.97
2024-05-09T02:30:35.675Z,65.82
2024-05-09T02:33:06.919Z,59.47
2024-05-09T02:35:33.913Z,61.95
2024-05-09T02:38:00.768Z,59.28
2024-05-09T02:40:35.686Z,74.13
2024-05-09T02:43:04.884Z,66.38
2024-05-09T02:45:31.528Z,64.97
2024-05-09T02:47:58.549Z,58.38
2024-05-09T02:50:33.663Z,52.55
2024-05-09T02:53:04.998Z,54.58
2024-05-09T02:55:31.655Z,57.15
2024-05-09T02:57:58.139Z,55.67
2024-05-09T03:00:34.189Z,58.42
2024-05-09T03:03:06.025Z,70.30
2024-05-09T03:05:33.334Z,78.22
2024-05-09T03:07:59.986Z,71.18
2024-05-09T03:10:29.027Z,56.75
2024-05-09T03:13:05.050Z,67.45
2024-05-09T03:15:33.098Z,60.63
2024-05-09T03:18:00.774Z,60.88
2024-05-09T03:20:33.280Z,61.72
2024-05-09T03:23:02.157Z,76.10
2024-05-09T03:25:28.718Z,78.35
2024-05-09T03:27:55.197Z,70.85
2024-05-09T03:30:31.102Z,72.70
2024-05-09T03:33:09.810Z,57.88
2024-05-09T03:35:36.566Z,61.90
2024-05-09T03:38:03.304Z,61.15
2024-05-09T03:40:31.104Z,62.58
2024-05-09T03:42:58.875Z,71.05
2024-05-09T03:45:25.526Z,64.45
2024-05-09T03:47:52.479Z,77.97
2024-05-09T03:50:26.296Z,56.17
2024-05-09T03:53:00.144Z,73.20
2024-05-09T03:55:26.739Z,58.95
2024-05-09T03:57:53.246Z,59.65
2024-05-09T04:00:30.035Z,47.72
2024-05-09T04:03:01.905Z,59.30
2024-05-09T04:05:30.725Z,62.83
2024-05-09T04:07:57.577Z,87.10
2024-05-09T04:10:31.022Z,66.80
2024-05-09T04:13:00.334Z,52.42
2024-05-09T04:15:26.917Z,58.72
2024-05-09T04:17:56.844Z,68.10
2024-05-09T04:20:35.549Z,80.78
2024-05-09T04:23:06.189Z,69.88
2024-05-09T04:25:33.290Z,65.78
2024-05-09T04:28:00.002Z,61.03
2024-05-09T04:30:34.969Z,60.15
2024-05-09T04:33:06.432Z,58.33
2024-05-09T04:35:34.105Z,52.15
2024-05-09T04:38:00.884Z,51.78
2024-05-09T04:40:33.227Z,59.10
2024-05-09T04:43:03.056Z,56.90
2024-05-09T04:45:29.586Z,72.07
2024-05-09T04:47:56.380Z,58.97
2024-05-09T04:50:30.301Z,57.57
2024-05-09T04:53:03.220Z,61.33
2024-05-09T04:55:29.819Z,72.85
2024-05-09T04:57:56.300Z,50.92
2024-05-09T05:00:32.290Z,49.47
2024-05-09T05:03:05.953Z,48.33
2024-05-09T05:05:32.837Z,43.08
2024-05-09T05:07:59.399Z,50.92
2024-05-09T05:10:33.563Z,53.72
2024-05-09T05:13:23.835Z,48.85
2024-05-09T05:15:56.961Z,38.27
2024-05-09T05:18:25.383Z,34.33
2024-05-09T05:20:52.129Z,36.80
2024-05-09T05:23:19.652Z,36.30
2024-05-09T05:25:50.093Z,42.60
2024-05-09T05:28:17.612Z,43.83
2024-05-09T05:30:44.318Z,34.90
2024-05-09T05:33:12.083Z,35.38
2024-05-09T05:35:39.225Z,35.25
2024-05-09T05:38:09.235Z,40.42
2024-05-09T05:40:40.397Z,36.77
2024-05-09T05:43:11.218Z,36.42
2024-05-09T05:45:38.462Z,39.80
2024-05-09T05:48:06.603Z,36.72
2024-05-09T05:50:36.797Z,36.85
2024-05-09T05:53:08.948Z,41.13
2024-05-09T05:55:39.622Z,42.22
2024-05-09T05:58:09.255Z,35.58
2024-05-09T06:00:39.029Z,36.70
2024-05-09T06:03:07.772Z,34.53
2024-05-09T06:05:35.861Z,31.23
2024-05-09T06:08:02.565Z,31.35
2024-05-09T06:10:37.580Z,32.08
2024-05-09T06:13:06.794Z,27.88
2024-05-09T06:15:33.363Z,30.35
2024-05-09T06:18:00.284Z,30.83
2024-05-09T06:20:34.906Z,25.83
2024-05-09T06:23:04.283Z,30.27
2024-05-09T06:25:30.846Z,29.15
2024-05-09T06:27:57.398Z,28.23
2024-05-09T06:30:30.523Z,30.00
2024-05-09T06:33:04.938Z,28.90
2024-05-09T06:35:31.795Z,28.60
2024-05-09T06:37:58.488Z,29.80
2024-05-09T06:40:29.478Z,33.28
2024-05-09T06:43:01.976Z,34.07
2024-05-09T06:45:28.499Z,30.63
2024-05-09T06:47:55.132Z,29.52
2024-05-09T06:50:24.408Z,32.45
2024-05-09T06:52:54.613Z,30.67
2024-05-09T06:55:21.198Z,30.60
2024-05-09T06:57:47.698Z,34.47
2024-05-09T07:00:22.730Z,33.80
2024-05-09T07:02:57.098Z,33.80
2024-05-09T07:05:24.208Z,31.58
2024-05-09T07:07:50.783Z,30.20
2024-05-09T07:10:22.170Z,34.97
2024-05-09T07:12:55.482Z,38.90
2024-05-09T07:15:22.014Z,39.08
2024-05-09T07:17:48.865Z,35.92
2024-05-09T07:20:23.503Z,37.83
2024-05-09T07:22:58.543Z,37.28
2024-05-09T07:25:25.028Z,35.20
2024-05-09T07:27:51.495Z,39.15
2024-05-09T07:30:26.933Z,36.50
2024-05-09T07:32:57.809Z,36.10
2024-05-09T07:35:24.516Z,34.47
2024-05-09T07:37:51.057Z,38.83
2024-05-09T07:40:27.608Z,34.95
2024-05-09T07:42:59.278Z,37.10
2024-05-09T07:45:43.303Z,34.43
2024-05-09T07:49:44.853Z,36.28
2024-05-09T07:53:07.549Z,39.80
2024-05-09T07:53:50.612Z,39.90
2024-05-09T07:56:22.002Z,40.42
2024-05-09T07:58:50.266Z,35.70
2024-05-09T08:01:16.935Z,37.45
2024-05-09T08:03:43.861Z,42.63
2024-05-09T08:06:10.650Z,40.05
2024-05-09T08:08:37.215Z,41.25
2024-05-09T08:11:03.797Z,39.33
2024-05-09T08:13:30.390Z,37.88
2024-05-09T08:15:56.877Z,37.08
2024-05-09T08:18:23.849Z,38.70
2024-05-09T08:20:50.925Z,36.65
2024-05-09T08:23:17.955Z,40.60
2024-05-09T08:25:44.500Z,38.17
2024-05-09T08:28:11.775Z,36.15
2024-05-09T08:30:38.898Z,38.47
2024-05-09T08:33:06.857Z,30.90
2024-05-09T08:35:34.446Z,34.57
2024-05-09T08:38:02.598Z,34.72
2024-05-09T08:40:34.570Z,35.42
2024-05-09T08:43:06.678Z,37.17
2024-05-09T08:45:34.757Z,37.10
2024-05-09T08:48:05.598Z,37.03
2024-05-09T08:50:38.492Z,32.25
2024-05-09T08:53:06.323Z,33.38
2024-05-09T08:55:32.885Z,29.83
2024-05-09T08:58:00.950Z,31.10
2024-05-09T09:00:35.783Z,30.40
2024-05-09T09:03:05.875Z,34.55
2024-05-09T09:05:35.244Z,30.85
2024-05-09T09:08:04.501Z,33.65
2024-05-09T09:10:32.430Z,31.90
2024-05-09T09:13:04.750Z,31.37
2024-05-09T09:15:31.900Z,34.88
2024-05-09T09:17:59.722Z,31.23
2024-05-09T09:20:34.144Z,30.80
2024-05-09T09:23:03.635Z,29.50
2024-05-09T09:25:30.195Z,30.20
2024-05-09T09:27:57.878Z,33.72
2024-05-09T09:30:34.682Z,28.48
2024-05-09T09:33:04.315Z,30.63
2024-05-09T09:35:30.972Z,30.23
2024-05-09T09:38:01.788Z,28.87
2024-05-09T09:40:35.069Z,28.67
2024-05-09T09:43:07.075Z,31.65
2024-05-09T09:45:35.907Z,29.55
2024-05-09T09:48:02.902Z,29.73
2024-05-09T09:50:34.330Z,31.53
2024-05-09T09:53:01.999Z,33.38
2024-05-09T09:55:28.819Z,31.65
2024-05-09T09:57:56.830Z,33.30
2024-05-09T10:00:30.155Z,34.05
2024-05-09T10:02:59.477Z,32.73
2024-05-09T10:05:26.549Z,33.70
2024-05-09T10:07:53.810Z,34.20
2024-05-09T10:10:32.374Z,32.35
2024-05-09T10:13:00.770Z,34.08
2024-05-09T10:15:27.754Z,33.43
2024-05-09T10:17:54.730Z,37.25
2024-05-09T10:20:25.071Z,37.25
2024-05-09T10:22:54.756Z,32.85
2024-05-09T10:25:21.517Z,33.08
2024-05-09T10:27:54.797Z,33.40
2024-05-09T10:30:29.719Z,33.25
2024-05-09T10:33:02.272Z,31.90
2024-05-09T10:35:31.163Z,33.45
2024-05-09T10:38:03.389Z,34.38
2024-05-09T10:40:31.744Z,33.17
2024-05-09T10:43:02.526Z,34.53
2024-05-09T10:45:31.974Z,32.67
2024-05-09T10:47:58.949Z,35.17
2024-05-09T10:50:29.171Z,33.35
2024-05-09T10:53:00.527Z,32.73
2024-05-09T10:55:27.514Z,36.25
2024-05-09T10:57:54.313Z,39.20
2024-05-09T11:00:27.604Z,36.85
2024-05-09T11:03:00.052Z,34.00
2024-05-09T11:05:26.838Z,31.20
2024-05-09T11:07:53.767Z,36.63
2024-05-09T11:10:27.403Z,33.88
2024-05-09T11:12:58.600Z,35.08
2024-05-09T11:15:25.943Z,37.30
2024-05-09T11:17:52.644Z,33.10
2024-05-09T11:20:26.795Z,35.83
2024-05-09T11:22:57.665Z,34.35
2024-05-09T11:25:24.449Z,34.63
2024-05-09T11:27:51.177Z,33.60
2024-05-09T11:30:26.738Z,35.17
2024-05-09T11:32:59.724Z,35.25
2024-05-09T11:35:29.511Z,34.47
2024-05-09T11:37:56.082Z,40.35
2024-05-09T11:40:25.781Z,37.38
2024-05-09T11:42:59.030Z,38.03
2024-05-09T11:45:26.717Z,36.55
2024-05-09T11:47:53.544Z,34.90
2024-05-09T11:50:27.113Z,32.72
2024-05-09T11:52:56.905Z,36.10
2024-05-09T11:55:27.706Z,33.93
2024-05-09T11:57:55.173Z,33.53
2024-05-09T12:00:29.523Z,35.55
2024-05-09T12:03:04.639Z,35.15
2024-05-09T12:05:31.696Z,38.63
2024-05-09T12:07:58.286Z,37.87
2024-05-09T12:10:32.577Z,35.80
2024-05-09T12:13:02.017Z,37.28
2024-05-09T12:15:28.957Z,35.67
2024-05-09T12:17:58.350Z,34.88
2024-05-09T12:20:35.154Z,38.60
2024-05-09T12:23:04.945Z,37.70
2024-05-09T12:25:31.484Z,37.63
2024-05-09T12:27:58.114Z,34.70
2024-05-09T12:30:33.122Z,38.42
2024-05-09T12:33:04.685Z,39.77
2024-05-09T12:35:32.558Z,36.40
2024-05-09T12:37:59.227Z,38.67
2024-05-09T12:40:34.390Z,40.60
2024-05-09T12:43:04.205Z,42.97
2024-05-09T12:45:30.960Z,41.90
2024-05-09T12:47:57.705Z,39.67
2024-05-09T12:50:31.101Z,42.08
2024-05-09T12:52:59.572Z,43.83
2024-05-09T12:55:26.979Z,43.85
2024-05-09T12:57:54.560Z,38.77
2024-05-09T13:00:27.969Z,39.65
2024-05-09T13:03:00.055Z,42.20
2024-05-09T13:05:26.758Z,43.50
2024-05-09T13:07:53.284Z,40.40
2024-05-09T13:10:25.655Z,45.20
2024-05-09T13:12:58.152Z,43.38
2024-05-09T13:15:24.808Z,40.67
2024-05-09T13:17:51.294Z,42.83
2024-05-09T13:20:26.106Z,45.15
2024-05-09T13:22:58.478Z,42.73
2024-05-09T13:25:24.985Z,41.35
2024-05-09T13:27:51.598Z,42.60
2024-05-09T13:30:26.326Z,43.28
2024-05-09T13:33:01.025Z,40.92
2024-05-09T13:35:27.818Z,46.80
2024-05-09T13:37:54.401Z,42.25
2024-05-09T13:40:29.891Z,46.10
2024-05-09T13:43:01.823Z,43.55
2024-05-09T13:45:28.450Z,46.13
2024-05-09T13:47:55.314Z,46.53
2024-05-09T13:50:30.956Z,45.85
2024-05-09T13:53:01.514Z,46.28
2024-05-09T13:55:28.130Z,49.17
2024-05-09T13:57:55.391Z,52.22
2024-05-09T14:00:37.469Z,44.60
2024-05-09T14:03:08.837Z,47.60
2024-05-09T14:05:35.614Z,45.55
2024-05-09T14:08:02.264Z,48.08
2024-05-09T14:10:31.342Z,48.85
2024-05-09T14:12:58.909Z,45.67
2024-05-09T14:15:25.449Z,41.88
2024-05-09T14:17:52.354Z,47.03
2024-05-09T14:20:28.490Z,45.63
2024-05-09T14:22:58.065Z,42.45
2024-05-09T14:25:26.464Z,47.20
2024-05-09T14:27:53.462Z,44.97
2024-05-09T14:30:29.715Z,46.55
2024-05-09T14:33:01.442Z,53.33
2024-05-09T14:35:28.139Z,48.63
2024-05-09T14:37:54.678Z,43.90
2024-05-09T14:40:35.468Z,47.50
2024-05-09T14:43:07.424Z,44.10
2024-05-09T14:45:34.663Z,43.17
2024-05-09T14:48:01.572Z,47.28
2024-05-09T14:50:35.073Z,46.70
2024-05-09T14:53:05.836Z,48.50
2024-05-09T14:55:32.644Z,47.50
2024-05-09T14:57:59.186Z,45.40
2024-05-09T15:00:29.484Z,44.03
2024-05-09T15:03:02.855Z,43.73
2024-05-09T15:05:29.541Z,45.95
2024-05-09T15:07:57.044Z,43.88
2024-05-09T15:10:31.539Z,50.42
2024-05-09T15:13:01.898Z,46.75
2024-05-09T15:15:28.456Z,44.63
2024-05-09T15:17:55.630Z,43.60
2024-05-09T15:20:30.942Z,47.60
2024-05-09T15:23:01.871Z,44.55
2024-05-09T15:25:28.605Z,49.95
2024-05-09T15:27:55.334Z,45.03
2024-05-09T15:30:29.978Z,48.70
2024-05-09T15:32:59.140Z,46.65
2024-05-09T15:35:25.699Z,46.65
2024-05-09T15:37:52.248Z,46.47
2024-05-09T15:40:26.593Z,46.93
2024-05-09T15:43:02.357Z,46.53
2024-05-09T15:45:29.379Z,46.47
2024-05-09T15:47:56.785Z,45.40
2024-05-09T15:50:32.803Z,43.60
2024-05-09T15:53:04.876Z,42.90
2024-05-09T15:55:34.859Z,44.95
2024-05-09T15:58:02.524Z,43.22
2024-05-09T16:00:37.327Z,44.63
2024-05-09T16:03:07.874Z,44.45
2024-05-09T16:05:34.902Z,42.97
2024-05-09T16:08:01.587Z,42.10
2024-05-09T16:10:32.659Z,42.30
2024-05-09T16:13:00.901Z,41.65
2024-05-09T16:15:27.600Z,40.08
2024-05-09T16:17:54.287Z,41.30
2024-05-09T16:20:33.749Z,48.75
2024-05-09T16:23:05.661Z,41.20
2024-05-09T16:25:32.239Z,42.33
2024-05-09T16:27:58.978Z,43.72
2024-05-09T16:30:32.105Z,45.93
2024-05-09T16:33:02.140Z,43.67
2024-05-09T16:35:28.982Z,45.53
2024-05-09T16:37:55.621Z,41.03
2024-05-09T16:40:30.189Z,43.08
2024-05-09T16:43:04.431Z,39.57
2024-05-09T16:45:32.291Z,43.08
2024-05-09T16:47:59.756Z,39.75
2024-05-09T16:50:32.011Z,40.63
2024-05-09T16:53:00.630Z,38.60
2024-05-09T16:55:27.353Z,44.03
2024-05-09T16:57:54.725Z,43.33
2024-05-09T17:00:30.717Z,38.13
2024-05-09T17:03:05.710Z,41.65
2024-05-09T17:05:32.485Z,41.03
2024-05-09T17:07:59.119Z,35.73
2024-05-09T17:10:31.788Z,33.63
2024-05-09T17:13:00.437Z,36.92
2024-05-09T17:15:26.986Z,35.88
2024-05-09T17:17:53.607Z,40.47
2024-05-09T17:20:29.328Z,37.47
2024-05-09T17:23:00.388Z,37.78
2024-05-09T17:25:26.965Z,36.65
2024-05-09T17:27:54.214Z,35.13
2024-05-09T17:30:28.815Z,38.38
2024-05-09T17:33:01.316Z,33.30
2024-05-09T17:35:28.088Z,38.47
2024-05-09T17:37:54.616Z,35.22
2024-05-09T17:40:30.094Z,35.67
2024-05-09T17:43:00.128Z,36.45
2024-05-09T17:45:26.728Z,33.57
2024-05-09T17:47:53.576Z,35.78
2024-05-09T17:50:27.440Z,36.47
2024-05-09T17:53:00.589Z,36.63
2024-05-09T17:55:27.469Z,40.90
2024-05-09T17:57:54.366Z,37.80
2024-05-09T18:00:29.266Z,33.67
2024-05-09T18:03:03.807Z,36.95
2024-05-09T18:05:30.686Z,35.08
2024-05-09T18:07:57.452Z,35.05
2024-05-09T18:10:30.134Z,36.00
2024-05-09T18:13:02.676Z,33.67
2024-05-09T18:15:29.252Z,33.90
2024-05-09T18:17:57.174Z,36.83
2024-05-09T18:20:33.128Z,33.88
2024-05-09T18:23:07.902Z,32.67
2024-05-09T18:25:34.574Z,32.28
2024-05-09T18:28:04.465Z,36.17
2024-05-09T18:30:38.419Z,32.20
2024-05-09T18:33:06.561Z,33.42
2024-05-09T18:35:34.434Z,31.03
2024-05-09T18:38:00.959Z,33.17
2024-05-09T18:40:33.129Z,37.40
2024-05-09T18:43:03.109Z,37.90
2024-05-09T18:45:30.102Z,37.22
2024-05-09T18:47:56.854Z,33.63
2024-05-09T18:50:32.032Z,35.25
2024-05-09T18:53:02.915Z,33.22
2024-05-09T18:55:29.559Z,31.48
2024-05-09T18:57:56.265Z,39.28
2024-05-09T19:00:31.489Z,35.60
2024-05-09T19:03:04.919Z,35.10
2024-05-09T19:05:32.413Z,34.40
2024-05-09T19:07:59.578Z,35.60
2024-05-09T19:10:32.007Z,36.65
2024-05-09T19:13:02.337Z,36.53
2024-05-09T19:15:29.947Z,35.80
2024-05-09T19:17:56.785Z,36.85
2024-05-09T19:20:28.689Z,41.88
2024-05-09T19:23:00.401Z,35.72
2024-05-09T19:25:26.913Z,41.97
2024-05-09T19:27:53.456Z,37.85
2024-05-09T19:30:29.338Z,40.90
2024-05-09T19:33:03.559Z,38.22
2024-05-09T19:35:30.370Z,40.63
2024-05-09T19:37:56.973Z,42.20
2024-05-09T19:40:29.156Z,39.67
2024-05-09T19:42:58.947Z,38.83
2024-05-09T19:45:25.531Z,39.53
2024-05-09T19:47:52.356Z,41.25
2024-05-09T19:50:26.800Z,38.20
2024-05-09T19:53:02.073Z,38.47
2024-05-09T19:55:28.531Z,36.63
2024-05-09T19:57:55.163Z,39.13
2024-05-09T20:00:28.828Z,38.83
2024-05-09T20:02:59.541Z,36.87
2024-05-09T20:05:27.303Z,37.70
2024-05-09T20:07:55.083Z,35.42
2024-05-09T20:10:24.158Z,37.53
2024-05-09T20:12:56.189Z,37.70
2024-05-09T20:15:22.756Z,39.80
2024-05-09T20:17:49.679Z,35.70
2024-05-09T20:20:27.386Z,37.60
2024-05-09T20:22:59.968Z,38.92
2024-05-09T20:25:26.451Z,43.33
2024-05-09T20:27:53.109Z,41.27
2024-05-09T20:30:25.591Z,40.63
2024-05-09T20:32:58.167Z,38.42
2024-05-09T20:35:26.439Z,38.72
2024-05-09T20:37:53.011Z,42.15
2024-05-09T20:40:28.231Z,38.60
2024-05-09T20:42:58.616Z,40.33
2024-05-09T20:45:25.496Z,40.13
2024-05-09T20:47:52.128Z,38.75
2024-05-09T20:50:27.988Z,40.00
2024-05-09T20:53:02.474Z,41.37
2024-05-09T20:55:30.063Z,39.28
2024-05-09T20:57:56.949Z,42.33
2024-05-09T21:00:30.274Z,45.25
2024-05-09T21:03:05.242Z,37.53
2024-05-09T21:05:32.178Z,40.17
2024-05-09T21:07:58.799Z,42.95
2024-05-09T21:10:27.131Z,43.45
2024-05-09T21:12:56.442Z,41.25
2024-05-09T21:15:23.178Z,44.08
2024-05-09T21:17:49.759Z,40.40
2024-05-09T21:20:20.506Z,43.95
2024-05-09T21:22:50.725Z,48.97
2024-05-09T21:25:17.275Z,43.90
2024-05-09T21:27:43.903Z,43.55
2024-05-09T21:30:16.064Z,42.57
2024-05-09T21:32:49.615Z,53.85
2024-05-09T21:35:17.048Z,53.80
2024-05-09T21:37:43.514Z,45.28
2024-05-09T21:40:13.865Z,49.72
2024-05-09T21:42:47.510Z,44.27
2024-05-09T21:45:14.258Z,46.35
2024-05-09T21:47:40.829Z,48.13
2024-05-09T21:50:07.935Z,49.67
2024-05-09T21:52:34.654Z,48.95
2024-05-09T21:55:01.152Z,46.13
2024-05-09T21:57:27.628Z,46.25
2024-05-09T21:59:54.103Z,51.63
2024-05-09T22:02:20.730Z,45.83
2024-05-09T22:04:47.925Z,46.13
2024-05-09T22:07:14.558Z,50.40
2024-05-09T22:09:45.368Z,53.28
2024-05-09T22:12:12.186Z,42.65
2024-05-09T22:14:38.892Z,42.10
2024-05-09T22:17:05.415Z,43.03
2024-05-09T22:19:32.028Z,47.83
2024-05-09T22:21:58.624Z,48.78
2024-05-09T22:24:25.169Z,53.20
2024-05-09T22:26:53.555Z,45.38
2024-05-09T22:29:20.029Z,47.75
2024-05-09T22:31:46.581Z,53.63
2024-05-09T22:34:13.279Z,46.03
2024-05-09T22:36:39.946Z,49.95
2024-05-09T22:39:06.696Z,49.25
2024-05-09T22:41:33.259Z,53.30
2024-05-09T22:44:01.924Z,55.27
2024-05-09T22:46:28.580Z,55.00
2024-05-09T22:48:55.390Z,49.78
2024-05-09T22:51:22.074Z,48.83
2024-05-09T22:53:48.640Z,56.38
2024-05-09T22:56:15.199Z,48.40
2024-05-09T22:58:41.707Z,50.95
2024-05-09T23:01:14.195Z,51.13
2024-05-09T23:03:40.964Z,57.60
2024-05-09T23:06:07.761Z,46.67
2024-05-09T23:08:34.277Z,47.57
2024-05-09T23:11:00.859Z,44.72
2024-05-09T23:13:27.818Z,48.90
2024-05-09T23:15:54.436Z,47.60
2024-05-09T23:18:21.132Z,49.70
2024-05-09T23:20:47.692Z,50.53
2024-05-09T23:23:14.145Z,51.83
2024-05-09T23:25:43.663Z,46.97
2024-05-09T23:28:10.692Z,46.83
2024-05-09T23:30:40.160Z,48.28
2024-05-09T23:33:09.316Z,46.73
2024-05-09T23:35:36.053Z,47.40
2024-05-09T23:38:02.765Z,48.47
2024-05-09T23:40:37.858Z,46.17
2024-05-09T23:43:07.636Z,47.72
2024-05-09T23:45:34.917Z,45.83
2024-05-09T23:48:01.784Z,44.17
2024-05-09T23:50:34.618Z,45.60
2024-05-09T23:53:04.147Z,45.65
2024-05-09T23:55:31.537Z,42.90
2024-05-09T23:57:58.427Z,43.63
